Time;durP1;ratioP1;P1;durP2;ratioP2;P2;SDS_P1;SDS_P2;PMS_P1;PMS_P2;Temp;Humidity;BMP_temperature;BMP_pressure;BME280_temperature;BME280_humidity;BME280_pressure;Samples;Min_cycle;Max_cycle;Signal;HPM_P1;HPM_P2
2023/04/23 00:01:04;;;;;;;6.57;4.53;;;;;;;11.25;100.00;95445.06;5081741;28;20020;-69
2023/04/23 00:03:32;;;;;;;12.13;5.28;;;;;;;11.24;100.00;95449.50;5065626;28;20024;-69
2023/04/23 00:05:58;;;;;;;10.13;5.25;;;;;;;11.24;100.00;95438.94;5075060;28;20377;-69
2023/04/23 00:08:24;;;;;;;11.82;4.65;;;;;;;11.23;100.00;95439.13;5063268;28;20040;-69
2023/04/23 00:10:50;;;;;;;8.45;5.20;;;;;;;11.19;100.00;95446.50;5074486;28;20031;-69
2023/04/23 00:13:16;;;;;;;8.95;5.30;;;;;;;11.07;100.00;95443.25;5065878;28;20024;-69
2023/04/23 00:15:41;;;;;;;11.43;5.13;;;;;;;11.16;100.00;95450.28;5074720;28;20031;-70
2023/04/23 00:18:07;;;;;;;10.48;5.60;;;;;;;11.28;100.00;95445.59;5068665;28;20025;-69
2023/04/23 00:20:33;;;;;;;9.48;5.50;;;;;;;10.94;100.00;95437.53;5062795;28;20051;-69
2023/04/23 00:22:59;;;;;;;9.50;6.18;;;;;;;10.87;100.00;95435.50;5079702;28;20039;-69
2023/04/23 00:25:24;;;;;;;8.00;5.72;;;;;;;10.92;100.00;95434.22;5064752;28;20096;-69
2023/04/23 00:27:50;;;;;;;8.45;5.03;;;;;;;10.87;100.00;95427.59;5073924;28;20026;-69
2023/04/23 00:30:17;;;;;;;10.40;5.28;;;;;;;10.86;100.00;95436.47;5058220;28;20043;-69
2023/04/23 00:32:43;;;;;;;10.60;5.53;;;;;;;10.96;100.00;95446.94;5073280;28;20104;-69
2023/04/23 00:35:09;;;;;;;11.55;5.55;;;;;;;10.91;100.00;95451.00;5077702;28;20033;-70
2023/04/23 00:37:34;;;;;;;9.68;5.45;;;;;;;11.16;100.00;95452.91;5074574;28;20126;-70
2023/04/23 00:40:01;;;;;;;6.85;5.25;;;;;;;10.94;100.00;95454.16;5077147;28;20059;-69
2023/04/23 00:42:27;;;;;;;9.43;6.15;;;;;;;10.86;100.00;95447.00;5075866;28;20031;-70
2023/04/23 00:44:53;;;;;;;11.13;5.45;;;;;;;10.89;100.00;95451.16;5067502;28;20021;-70
2023/04/23 00:47:19;;;;;;;8.90;5.70;;;;;;;10.79;100.00;95459.13;5076818;28;20025;-69
2023/04/23 00:49:45;;;;;;;11.15;5.90;;;;;;;10.79;100.00;95450.41;5075556;28;20017;-69
2023/04/23 00:52:11;;;;;;;9.63;6.13;;;;;;;10.69;100.00;95445.19;5073746;28;20032;-69
2023/04/23 00:54:36;;;;;;;10.38;5.93;;;;;;;10.64;100.00;95444.81;5073003;28;20012;-69
2023/04/23 00:57:02;;;;;;;7.93;5.47;;;;;;;10.57;100.00;95437.50;5071117;28;20548;-69
2023/04/23 00:59:29;;;;;;;9.13;5.63;;;;;;;10.57;100.00;95431.41;5069632;28;20043;-69
2023/04/23 01:01:55;;;;;;;9.13;5.72;;;;;;;10.56;100.00;95422.69;5066788;28;20028;-69
2023/04/23 01:04:23;;;;;;;9.13;5.75;;;;;;;10.60;100.00;95431.09;5072130;28;20021;-69
2023/04/23 01:06:49;;;;;;;7.65;5.60;;;;;;;10.58;100.00;95415.47;5080701;28;20083;-69
2023/04/23 01:09:16;;;;;;;9.77;5.68;;;;;;;10.65;100.00;95406.97;5080587;28;20016;-69
2023/04/23 01:11:43;;;;;;;10.70;6.10;;;;;;;10.66;100.00;95400.72;5064637;28;20017;-69
2023/04/23 01:14:09;;;;;;;11.73;5.60;;;;;;;10.68;100.00;95396.16;5070500;28;20020;-69
2023/04/23 01:16:37;;;;;;;8.98;5.55;;;;;;;10.61;100.00;95390.69;5073325;28;20032;-70
2023/04/23 01:19:05;;;;;;;11.25;5.72;;;;;;;10.54;100.00;95385.16;5078822;28;20113;-69
2023/04/23 01:21:33;;;;;;;6.80;5.50;;;;;;;10.66;100.00;95377.03;5067896;28;20488;-70
2023/04/23 01:23:58;;;;;;;8.25;5.82;;;;;;;10.54;100.00;95376.44;5077122;28;20081;-69
2023/04/23 01:26:23;;;;;;;6.78;4.95;;;;;;;10.67;100.00;95362.91;5067435;28;20021;-69
2023/04/23 01:28:49;;;;;;;7.28;5.45;;;;;;;10.62;100.00;95355.47;5074702;28;20021;-69
2023/04/23 01:31:16;;;;;;;9.95;5.82;;;;;;;10.44;100.00;95360.72;5076411;28;20101;-70
2023/04/23 01:33:42;;;;;;;7.53;5.25;;;;;;;10.37;100.00;95351.72;5068738;28;20029;-69
2023/04/23 01:36:08;;;;;;;10.85;5.82;;;;;;;10.37;100.00;95367.53;5072586;28;20052;-69
2023/04/23 01:38:35;;;;;;;5.90;5.30;;;;;;;10.41;100.00;95363.66;5073463;28;20485;-69
2023/04/23 01:41:00;;;;;;;10.95;6.13;;;;;;;10.38;100.00;95363.91;5073834;28;20024;-69
2023/04/23 01:43:27;;;;;;;6.78;5.57;;;;;;;10.41;100.00;95374.16;5076768;28;20031;-69
2023/04/23 01:45:52;;;;;;;8.50;5.68;;;;;;;10.71;100.00;95370.34;5076979;28;20028;-68
2023/04/23 01:48:18;;;;;;;9.25;6.15;;;;;;;10.40;100.00;95361.97;5077477;28;20020;-69
2023/04/23 01:50:44;;;;;;;6.75;5.60;;;;;;;10.24;100.00;95370.50;5074559;28;20016;-69
2023/04/23 01:53:09;;;;;;;13.15;6.60;;;;;;;10.30;100.00;95369.91;5082484;28;20020;-70
2023/04/23 01:55:38;;;;;;;10.25;6.10;;;;;;;10.24;100.00;95362.63;5079687;28;21103;-69
2023/04/23 01:58:03;;;;;;;8.10;5.60;;;;;;;10.26;100.00;95361.47;5078574;28;20024;-70
2023/04/23 02:00:28;;;;;;;6.93;5.45;;;;;;;10.33;100.00;95353.81;5086796;28;20035;-70
2023/04/23 02:02:54;;;;;;;6.25;5.45;;;;;;;10.28;100.00;95369.25;5084706;28;20100;-70
2023/04/23 02:05:20;;;;;;;7.53;6.10;;;;;;;10.32;100.00;95367.97;5071350;28;20103;-70
2023/04/23 02:07:47;;;;;;;13.70;5.68;;;;;;;10.32;100.00;95366.16;5067846;28;20036;-70
2023/04/23 02:10:13;;;;;;;7.32;5.90;;;;;;;10.50;100.00;95369.81;5066936;28;20021;-70
2023/04/23 02:12:40;;;;;;;11.25;6.25;;;;;;;10.49;100.00;95362.91;5069470;28;20028;-70
2023/04/23 02:15:07;;;;;;;9.00;6.13;;;;;;;10.42;100.00;95371.41;5080320;28;20035;-70
2023/04/23 02:17:32;;;;;;;8.55;5.63;;;;;;;10.31;100.00;95374.19;5077574;28;20033;-70
2023/04/23 02:19:58;;;;;;;10.15;6.15;;;;;;;10.18;100.00;95378.03;5076082;28;20434;-70
2023/04/23 02:22:25;;;;;;;9.90;5.80;;;;;;;10.33;100.00;95366.97;5078791;28;20051;-70
2023/04/23 02:24:52;;;;;;;12.23;6.50;;;;;;;10.17;100.00;95347.44;5077268;28;20034;-70
2023/04/23 02:27:18;;;;;;;10.45;6.85;;;;;;;10.11;100.00;95358.53;5076937;28;20783;-69
2023/04/23 02:29:44;;;;;;;8.15;6.20;;;;;;;10.11;100.00;95373.50;5074703;28;20029;-69
2023/04/23 02:32:10;;;;;;;9.40;6.30;;;;;;;10.03;100.00;95372.41;5072266;28;20034;-69
2023/04/23 02:34:35;;;;;;;10.23;6.63;;;;;;;10.07;100.00;95359.00;5077802;28;20036;-70
2023/04/23 02:37:00;;;;;;;10.80;6.78;;;;;;;10.12;100.00;95359.38;5068525;28;20456;-70
2023/04/23 02:39:26;;;;;;;11.18;6.85;;;;;;;10.03;100.00;95353.19;5074394;28;20171;-71
2023/04/23 02:41:51;;;;;;;9.75;6.25;;;;;;;10.06;100.00;95365.19;5073853;28;20109;-69
2023/04/23 02:44:17;;;;;;;9.43;5.68;;;;;;;10.11;100.00;95368.25;5074026;28;20169;-69
2023/04/23 02:46:42;;;;;;;6.70;5.93;;;;;;;10.20;100.00;95369.97;5073143;28;20025;-70
2023/04/23 02:49:07;;;;;;;7.82;6.40;;;;;;;10.21;100.00;95366.38;5085778;28;20434;-69
2023/04/23 02:51:33;;;;;;;6.63;5.88;;;;;;;10.33;100.00;95356.47;5075313;28;20029;-70
2023/04/23 02:53:58;;;;;;;10.85;6.25;;;;;;;10.34;100.00;95362.56;5069671;28;20051;-72
2023/04/23 02:56:24;;;;;;;11.52;6.05;;;;;;;10.18;100.00;95364.88;5076716;28;20036;-70
2023/04/23 02:58:49;;;;;;;11.25;6.35;;;;;;;10.14;100.00;95360.84;5075012;28;20496;-70
2023/04/23 03:01:15;;;;;;;9.15;6.43;;;;;;;10.12;100.00;95354.91;5075171;28;20084;-69
2023/04/23 03:03:41;;;;;;;12.05;6.82;;;;;;;10.02;100.00;95344.44;5072150;28;20370;-71
2023/04/23 03:06:07;;;;;;;6.65;6.05;;;;;;;9.96;100.00;95336.34;5077144;28;20066;-71
2023/04/23 03:08:32;;;;;;;7.60;6.75;;;;;;;9.95;100.00;95340.75;5059081;28;20020;-71
2023/04/23 03:10:58;;;;;;;10.60;6.05;;;;;;;9.86;100.00;95341.66;5074714;28;20066;-71
2023/04/23 03:13:24;;;;;;;6.63;6.00;;;;;;;9.83;100.00;95336.66;5075974;28;20030;-71
2023/04/23 03:15:51;;;;;;;9.52;6.68;;;;;;;9.87;100.00;95336.22;5076286;28;20035;-71
2023/04/23 03:18:17;;;;;;;11.63;6.38;;;;;;;9.92;100.00;95338.44;5076107;28;20020;-70
2023/04/23 03:20:42;;;;;;;8.35;6.30;;;;;;;9.89;100.00;95336.09;5072840;28;20021;-70
2023/04/23 03:23:08;;;;;;;8.45;5.88;;;;;;;9.87;100.00;95330.97;5079024;28;20027;-70
2023/04/23 03:25:33;;;;;;;11.95;5.82;;;;;;;10.03;100.00;95337.41;5071892;28;20055;-70
2023/04/23 03:27:59;;;;;;;12.02;6.30;;;;;;;10.02;100.00;95341.81;5076115;28;20150;-70
2023/04/23 03:30:26;;;;;;;7.10;6.38;;;;;;;9.94;100.00;95347.00;5066266;28;20021;-70
2023/04/23 03:32:53;;;;;;;7.15;6.15;;;;;;;9.89;100.00;95336.91;5075838;28;20091;-70
2023/04/23 03:35:19;;;;;;;8.30;5.75;;;;;;;9.91;100.00;95336.78;5081352;28;20024;-70
2023/04/23 03:37:44;;;;;;;6.90;5.93;;;;;;;9.89;100.00;95328.22;5074060;28;20043;-70
2023/04/23 03:40:10;;;;;;;6.63;5.88;;;;;;;9.94;100.00;95330.38;5064409;28;20039;-69
2023/04/23 03:42:35;;;;;;;7.30;5.57;;;;;;;9.93;100.00;95320.84;5064472;28;20025;-70
2023/04/23 03:45:01;;;;;;;6.10;5.30;;;;;;;10.04;100.00;95312.75;5077914;28;20032;-69
2023/04/23 03:47:26;;;;;;;7.13;6.13;;;;;;;9.97;100.00;95309.88;5076212;28;20024;-70
2023/04/23 03:49:52;;;;;;;7.93;5.95;;;;;;;9.94;100.00;95310.19;5076017;28;20034;-70
2023/04/23 03:52:17;;;;;;;7.55;6.47;;;;;;;9.93;100.00;95305.91;5073122;28;20035;-70
2023/04/23 03:54:43;;;;;;;8.07;5.88;;;;;;;9.88;100.00;95305.53;5072846;28;20385;-70
2023/04/23 03:57:08;;;;;;;9.48;6.35;;;;;;;9.85;100.00;95298.75;5067307;28;20035;-70
2023/04/23 03:59:34;;;;;;;10.48;6.68;;;;;;;9.87;100.00;95299.41;5075442;28;20107;-70
2023/04/23 04:02:02;;;;;;;7.70;5.85;;;;;;;9.82;100.00;95296.41;5079105;28;20024;-69
2023/04/23 04:04:28;;;;;;;10.00;6.40;;;;;;;9.78;100.00;95302.09;5073121;28;20465;-69
2023/04/23 04:06:54;;;;;;;10.07;7.95;;;;;;;9.73;100.00;95297.31;5073226;28;20028;-70
2023/04/23 04:09:19;;;;;;;6.97;5.63;;;;;;;9.72;100.00;95298.25;5072608;28;20016;-70
2023/04/23 04:11:45;;;;;;;9.00;7.38;;;;;;;9.69;100.00;95307.28;5073789;28;20029;-69
2023/04/23 04:14:10;;;;;;;8.73;6.80;;;;;;;9.65;100.00;95315.59;5091830;28;20098;-69
2023/04/23 04:16:35;;;;;;;7.47;6.78;;;;;;;9.69;100.00;95320.41;5067145;28;20104;-69
2023/04/23 04:19:02;;;;;;;7.05;6.22;;;;;;;9.72;100.00;95316.66;5075748;28;20036;-69
2023/04/23 04:21:27;;;;;;;8.55;6.80;;;;;;;9.71;100.00;95312.38;5076063;28;20020;-69
2023/04/23 04:23:53;;;;;;;7.20;6.47;;;;;;;9.70;100.00;95306.28;5084331;28;20024;-69
2023/04/23 04:26:19;;;;;;;11.75;7.13;;;;;;;9.78;100.00;95310.00;5062972;28;20024;-69
2023/04/23 04:28:44;;;;;;;8.35;6.57;;;;;;;10.03;100.00;95309.28;5080531;28;20033;-69
2023/04/23 04:31:10;;;;;;;8.98;7.30;;;;;;;10.03;100.00;95309.28;5077672;28;20070;-70
2023/04/23 04:33:38;;;;;;;8.40;7.57;;;;;;;9.96;100.00;95297.72;5077454;28;20084;-70
2023/04/23 04:36:04;;;;;;;9.00;7.70;;;;;;;9.77;100.00;95287.31;5069120;28;20409;-70
2023/04/23 04:38:29;;;;;;;11.77;10.68;;;;;;;9.68;100.00;95289.00;5074711;28;20032;-69
2023/04/23 04:40:58;;;;;;;12.20;11.10;;;;;;;9.64;100.00;95293.75;5076213;28;20035;-70
2023/04/23 04:43:24;;;;;;;11.07;10.05;;;;;;;9.67;100.00;95282.09;5080306;28;20100;-70
2023/04/23 04:45:50;;;;;;;13.48;10.70;;;;;;;9.65;100.00;95284.88;5065433;28;20119;-70
2023/04/23 04:48:15;;;;;;;13.18;12.18;;;;;;;9.58;100.00;95287.25;5082078;28;20100;-69
2023/04/23 04:50:41;;;;;;;13.13;11.93;;;;;;;9.58;100.00;95276.75;5072337;28;20500;-70
2023/04/23 04:53:06;;;;;;;12.15;11.07;;;;;;;9.65;100.00;95271.75;5075880;28;20115;-70
2023/04/23 04:55:31;;;;;;;13.73;10.75;;;;;;;9.69;100.00;95272.25;5074461;28;20029;-69
2023/04/23 04:57:57;;;;;;;12.18;11.13;;;;;;;9.69;100.00;95278.34;5078129;28;20047;-69
2023/04/23 05:00:28;;;;;;;11.68;10.77;;;;;;;9.74;100.00;95278.75;5091000;28;20020;-69
2023/04/23 05:02:53;;;;;;;12.98;11.68;;;;;;;9.71;100.00;95279.03;5069698;28;20034;-69
2023/04/23 05:05:21;;;;;;;11.43;10.43;;;;;;;9.72;100.00;95278.06;5070538;28;20475;-69
2023/04/23 05:07:46;;;;;;;14.15;11.45;;;;;;;9.75;100.00;95279.56;5085827;28;20457;-70
2023/04/23 05:10:13;;;;;;;11.90;10.77;;;;;;;9.73;100.00;95277.09;5073259;28;20052;-69
2023/04/23 05:12:41;;;;;;;14.77;12.00;;;;;;;9.74;100.00;95273.47;5067317;28;20032;-69
2023/04/23 05:15:09;;;;;;;11.88;10.68;;;;;;;9.78;100.00;95281.06;5074979;28;20113;-69
2023/04/23 05:17:41;;;;;;;14.48;12.52;;;;;;;9.80;100.00;95269.44;5075089;28;20032;-69
2023/04/23 05:20:11;;;;;;;12.60;11.40;;;;;;;9.71;100.00;95276.41;5073376;28;20048;-69
2023/04/23 05:22:40;;;;;;;14.90;11.88;;;;;;;9.73;100.00;95268.38;5066021;28;20059;-69
2023/04/23 05:25:07;;;;;;;12.60;11.30;;;;;;;9.77;100.00;95271.53;5075836;28;20111;-69
2023/04/23 05:27:33;;;;;;;11.30;10.32;;;;;;;9.80;100.00;95263.34;5069777;28;20021;-69
2023/04/23 05:30:01;;;;;;;11.88;10.77;;;;;;;9.80;100.00;95271.22;5079095;28;20024;-69
2023/04/23 05:32:26;;;;;;;14.27;12.23;;;;;;;9.82;100.00;95271.91;5080578;28;20087;-70
2023/04/23 05:34:52;;;;;;;12.85;11.85;;;;;;;9.83;100.00;95268.31;5076961;28;20028;-70
2023/04/23 05:37:17;;;;;;;13.32;12.10;;;;;;;9.75;100.00;95263.81;5068549;28;20420;-69
2023/04/23 05:39:43;;;;;;;12.70;11.57;;;;;;;9.80;100.00;95264.19;5075686;28;20060;-69
2023/04/23 05:42:08;;;;;;;13.45;12.18;;;;;;;9.83;100.00;95249.91;5067765;28;20032;-69
2023/04/23 05:44:34;;;;;;;12.77;11.55;;;;;;;9.83;100.00;95257.78;5064846;28;20123;-69
2023/04/23 05:46:59;;;;;;;12.40;11.40;;;;;;;9.89;100.00;95259.84;5080468;28;20032;-69
2023/04/23 05:49:26;;;;;;;11.95;10.95;;;;;;;9.96;100.00;95257.47;5070134;28;20108;-69
2023/04/23 05:51:51;;;;;;;12.85;11.63;;;;;;;10.04;100.00;95255.72;5076034;28;20063;-69
2023/04/23 05:54:17;;;;;;;13.63;12.43;;;;;;;10.05;100.00;95253.91;5069913;28;20397;-70
2023/04/23 05:56:43;;;;;;;12.80;11.68;;;;;;;10.02;100.00;95259.47;5076459;28;20039;-69
2023/04/23 05:59:08;;;;;;;12.75;11.65;;;;;;;10.05;100.00;95269.69;5066807;28;20033;-69
2023/04/23 06:01:34;;;;;;;13.63;10.95;;;;;;;10.14;100.00;95271.41;5069996;28;20033;-69
2023/04/23 06:04:00;;;;;;;10.70;10.00;;;;;;;10.22;100.00;95275.13;5072270;28;20124;-69
2023/04/23 06:06:26;;;;;;;11.98;10.73;;;;;;;10.15;100.00;95280.16;5075993;28;20033;-69
2023/04/23 06:08:52;;;;;;;11.68;10.48;;;;;;;10.10;100.00;95280.59;5069063;28;20027;-69
2023/04/23 06:11:17;;;;;;;17.80;11.95;;;;;;;10.09;100.00;95280.75;5064301;28;20040;-70
2023/04/23 06:13:43;;;;;;;11.23;10.23;;;;;;;10.09;100.00;95283.38;5078123;28;20393;-69
2023/04/23 06:16:08;;;;;;;11.05;9.95;;;;;;;10.14;100.00;95281.13;5076364;28;20028;-69
2023/04/23 06:18:36;;;;;;;11.25;8.30;;;;;;;10.36;100.00;95271.13;5073038;28;20029;-69
2023/04/23 06:21:03;;;;;;;9.52;7.68;;;;;;;10.46;100.00;95264.00;5072676;28;20106;-69
2023/04/23 06:23:29;;;;;;;8.93;8.13;;;;;;;10.42;100.00;95252.13;5072561;28;20028;-69
2023/04/23 06:25:55;;;;;;;12.55;8.75;;;;;;;10.32;100.00;95263.56;5068131;28;20404;-69
2023/04/23 06:28:20;;;;;;;12.02;9.35;;;;;;;10.19;100.00;95255.19;5071338;28;20032;-69
2023/04/23 06:30:46;;;;;;;10.95;9.85;;;;;;;10.09;100.00;95262.34;5075663;28;20090;-70
2023/04/23 06:33:12;;;;;;;11.98;9.90;;;;;;;10.03;100.00;95261.94;5076554;28;20052;-69
2023/04/23 06:35:37;;;;;;;13.05;10.93;;;;;;;10.03;100.00;95261.94;5068356;28;20028;-69
2023/04/23 06:38:02;;;;;;;10.50;9.60;;;;;;;9.99;100.00;95260.59;5074093;28;20016;-69
2023/04/23 06:40:28;;;;;;;10.35;9.52;;;;;;;10.06;100.00;95254.72;5078137;28;20035;-69
2023/04/23 06:42:54;;;;;;;10.95;10.05;;;;;;;10.02;100.00;95257.66;5068748;28;20031;-70
2023/04/23 06:45:20;;;;;;;11.80;10.43;;;;;;;10.02;100.00;95254.22;5069361;28;20107;-70
2023/04/23 06:47:48;;;;;;;10.65;9.70;;;;;;;9.99;100.00;95252.69;5084092;28;20024;-69
2023/04/23 06:50:13;;;;;;;10.35;9.00;;;;;;;10.06;100.00;95249.47;5070149;28;20040;-69
2023/04/23 06:52:39;;;;;;;10.65;9.40;;;;;;;10.47;100.00;95244.59;5086963;28;20035;-69
2023/04/23 06:55:05;;;;;;;8.95;8.07;;;;;;;10.87;100.00;95245.88;5071971;28;20079;-69
2023/04/23 06:57:30;;;;;;;9.32;8.43;;;;;;;10.98;100.00;95252.72;5075580;28;20044;-69
2023/04/23 06:59:55;;;;;;;9.38;8.25;;;;;;;11.01;100.00;95249.75;5081034;28;20024;-69
2023/04/23 07:02:21;;;;;;;8.75;8.05;;;;;;;11.02;100.00;95251.41;5082394;28;20032;-69
2023/04/23 07:04:46;;;;;;;9.02;8.18;;;;;;;11.00;100.00;95253.38;5069893;28;20029;-69
2023/04/23 07:07:12;;;;;;;9.93;8.23;;;;;;;11.13;100.00;95263.50;5078580;28;20066;-69
2023/04/23 07:09:37;;;;;;;10.10;8.93;;;;;;;11.36;100.00;95257.69;5066467;28;20044;-69
2023/04/23 07:12:03;;;;;;;9.98;7.75;;;;;;;11.34;100.00;95259.66;5060764;28;20593;-69
2023/04/23 07:14:28;;;;;;;9.15;7.43;;;;;;;11.26;100.00;95256.97;5069975;28;20393;-69
2023/04/23 07:16:53;;;;;;;9.10;6.82;;;;;;;11.12;100.00;95253.94;5068796;28;20798;-69
2023/04/23 07:19:19;;;;;;;7.38;6.68;;;;;;;11.36;100.00;95248.97;5070482;28;20059;-69
2023/04/23 07:21:44;;;;;;;7.22;6.40;;;;;;;11.87;100.00;95249.00;5073049;28;20505;-69
2023/04/23 07:24:10;;;;;;;7.30;6.38;;;;;;;12.37;100.00;95251.75;5074973;28;20101;-69
2023/04/23 07:26:35;;;;;;;6.65;6.05;;;;;;;12.69;100.00;95253.56;5067692;28;20021;-69
2023/04/23 07:29:03;;;;;;;6.32;5.72;;;;;;;13.70;100.00;95253.19;5072710;28;20663;-69
2023/04/23 07:31:28;;;;;;;5.32;4.82;;;;;;;14.23;97.87;95252.56;5065422;28;20034;-69
2023/04/23 07:33:55;;;;;;;6.57;4.68;;;;;;;14.48;98.29;95247.13;5071380;28;20102;-69
2023/04/23 07:36:20;;;;;;;6.82;4.47;;;;;;;14.78;94.03;95251.69;5070279;28;20041;-69
2023/04/23 07:38:46;;;;;;;6.55;4.18;;;;;;;15.56;92.15;95244.28;5069510;28;20086;-70
2023/04/23 07:41:11;;;;;;;3.83;3.42;;;;;;;15.98;84.72;95244.59;5067402;28;20473;-69
2023/04/23 07:43:38;;;;;;;3.75;3.40;;;;;;;16.44;83.68;95238.13;5061564;28;20524;-70
2023/04/23 07:46:03;;;;;;;6.93;3.08;;;;;;;16.85;80.31;95231.31;5066454;28;20052;-71
2023/04/23 07:48:30;;;;;;;4.55;3.10;;;;;;;17.02;77.15;95233.75;5068429;28;20021;-70
2023/04/23 07:50:55;;;;;;;3.33;3.03;;;;;;;17.56;74.29;95221.59;5059787;28;20054;-70
2023/04/23 07:53:21;;;;;;;4.18;2.50;;;;;;;17.64;68.44;95223.25;5070352;28;20667;-70
2023/04/23 07:55:46;;;;;;;3.00;2.75;;;;;;;17.35;72.38;95213.69;5064712;28;20024;-70
2023/04/23 07:58:12;;;;;;;3.92;2.97;;;;;;;18.32;69.45;95219.81;5079687;28;20016;-71
2023/04/23 08:00:37;;;;;;;3.30;2.45;;;;;;;18.60;66.83;95210.03;5071845;28;20029;-71
2023/04/23 08:03:03;;;;;;;5.05;2.78;;;;;;;19.39;62.91;95207.53;5072324;28;20021;-70
2023/04/23 08:05:28;;;;;;;4.10;2.50;;;;;;;19.31;62.22;95215.72;5076237;28;20027;-70
2023/04/23 08:07:53;;;;;;;3.20;2.80;;;;;;;18.84;62.18;95208.56;5076625;28;20102;-70
2023/04/23 08:10:22;;;;;;;4.97;3.22;;;;;;;18.00;66.22;95202.72;5066713;28;20036;-70
2023/04/23 08:12:47;;;;;;;4.38;3.00;;;;;;;18.70;61.90;95201.63;5074477;28;20032;-70
2023/04/23 08:15:13;;;;;;;5.68;3.00;;;;;;;18.56;64.31;95212.28;5073232;28;20031;-70
2023/04/23 08:17:38;;;;;;;5.10;3.03;;;;;;;18.67;63.37;95215.34;5069505;28;20068;-70
2023/04/23 08:20:07;;;;;;;7.20;3.20;;;;;;;18.17;68.31;95203.19;5077540;28;20081;-70
2023/04/23 08:22:32;;;;;;;5.88;3.10;;;;;;;18.95;64.05;95201.00;5070480;28;20033;-70
2023/04/23 08:24:57;;;;;;;9.38;3.00;;;;;;;18.75;65.82;95193.81;5071160;28;20082;-70
2023/04/23 08:27:23;;;;;;;4.55;2.55;;;;;;;19.00;63.03;95198.56;5059902;28;20036;-70
2023/04/23 08:29:48;;;;;;;3.97;2.80;;;;;;;19.10;62.66;95198.94;5071956;28;20052;-72
2023/04/23 08:32:14;;;;;;;7.28;3.00;;;;;;;19.66;61.58;95196.75;5077877;28;20028;-70
2023/04/23 08:34:39;;;;;;;5.20;3.08;;;;;;;20.33;57.29;95193.78;5057288;28;20116;-69
2023/04/23 08:37:05;;;;;;;3.72;2.88;;;;;;;20.16;58.30;95200.66;5064556;28;20048;-70
2023/04/23 08:39:32;;;;;;;5.13;2.70;;;;;;;20.30;54.35;95194.22;5069583;28;20025;-71
2023/04/23 08:42:06;;;;;;;5.15;2.60;;;;;;;19.76;57.12;95190.97;5068877;28;20028;-70
2023/04/23 08:44:32;;;;;;;3.20;2.50;;;;;;;19.97;55.76;95197.06;5057760;28;20055;-68
2023/04/23 08:47:03;;;;;;;3.88;2.88;;;;;;;19.68;57.06;95189.34;5072970;28;20101;-71
2023/04/23 08:49:32;;;;;;;5.93;2.70;;;;;;;19.83;54.49;95190.94;5071662;28;20021;-69
2023/04/23 08:52:03;;;;;;;5.07;2.70;;;;;;;20.21;56.43;95190.13;5070070;28;20056;-69
2023/04/23 08:54:32;;;;;;;8.50;2.95;;;;;;;20.38;57.34;95190.47;5067722;28;20032;-72
2023/04/23 08:56:58;;;;;;;5.53;2.33;;;;;;;20.44;55.91;95188.75;5063722;28;20036;-67
2023/04/23 08:59:25;;;;;;;4.97;2.80;;;;;;;20.66;57.50;95186.53;5078275;28;20032;-69
2023/04/23 09:01:52;;;;;;;5.15;3.10;;;;;;;20.31;58.80;95178.97;5069459;28;20640;-69
2023/04/23 09:04:19;;;;;;;5.53;3.03;;;;;;;20.49;55.59;95180.94;5070229;28;20025;-71
2023/04/23 09:06:45;;;;;;;3.30;2.50;;;;;;;21.31;56.12;95184.53;5077399;28;20730;-67
2023/04/23 09:09:11;;;;;;;4.85;2.75;;;;;;;21.42;56.91;95185.66;5081174;28;20023;-66
2023/04/23 09:11:37;;;;;;;7.80;2.97;;;;;;;20.94;55.57;95187.19;5071895;28;20033;-67
2023/04/23 09:14:03;;;;;;;4.03;2.70;;;;;;;21.41;51.96;95184.84;5080121;28;20634;-67
2023/04/23 09:16:29;;;;;;;7.75;3.53;;;;;;;20.86;51.28;95182.94;5072617;28;20029;-67
2023/04/23 09:18:55;;;;;;;5.45;3.38;;;;;;;20.27;54.13;95175.94;5079362;28;20086;-66
2023/04/23 09:21:20;;;;;;;5.43;3.10;;;;;;;20.82;51.67;95171.84;5086156;28;20085;-69
2023/04/23 09:23:50;;;;;;;4.72;3.38;;;;;;;20.44;49.01;95170.88;5076057;28;20037;-68
2023/04/23 09:26:22;;;;;;;7.10;3.40;;;;;;;20.47;49.37;95167.75;5069596;28;20025;-71
2023/04/23 09:28:50;;;;;;;4.63;3.10;;;;;;;21.12;51.60;95164.97;5073021;28;20024;-71
2023/04/23 09:31:25;;;;;;;5.55;3.42;;;;;;;20.57;49.80;95163.81;5068147;28;20119;-69
2023/04/23 09:33:54;;;;;;;6.53;3.58;;;;;;;20.81;50.74;95158.69;5080581;28;20035;-69
2023/04/23 09:36:22;;;;;;;5.10;3.47;;;;;;;20.69;50.05;95158.56;5073955;28;20075;-69
2023/04/23 09:38:49;;;;;;;4.60;3.60;;;;;;;21.53;47.81;95160.00;5065531;28;20029;-70
2023/04/23 09:41:25;;;;;;;7.40;3.58;;;;;;;21.75;49.18;95153.16;5082057;28;20073;-70
2023/04/23 09:43:55;;;;;;;4.18;3.08;;;;;;;22.55;48.15;95144.25;5078535;28;20035;-71
2023/04/23 09:46:36;;;;;;;4.80;3.00;;;;;;;22.80;46.87;95135.97;5069276;28;20583;-70
2023/04/23 09:49:04;;;;;;;3.63;3.33;;;;;;;22.18;48.92;95129.09;5067839;28;20051;-72
2023/04/23 09:51:30;;;;;;;6.25;3.45;;;;;;;21.62;52.34;95123.84;5076338;28;20058;-71
2023/04/23 09:53:56;;;;;;;4.20;3.05;;;;;;;21.45;51.48;95120.97;5074679;28;20032;-72
2023/04/23 09:56:23;;;;;;;7.88;3.30;;;;;;;20.62;51.80;95118.50;5067746;28;20709;-70
2023/04/23 09:58:49;;;;;;;5.13;3.08;;;;;;;20.11;54.64;95117.66;5074853;28;20120;-69
2023/04/23 10:01:14;;;;;;;5.10;3.00;;;;;;;19.67;55.27;95117.44;5078399;28;20047;-70
2023/04/23 10:03:42;;;;;;;7.22;3.17;;;;;;;19.92;50.73;95109.56;5069383;28;20066;-68
2023/04/23 10:06:12;;;;;;;6.05;2.88;;;;;;;20.10;53.40;95116.81;5070444;28;20028;-70
2023/04/23 10:08:38;;;;;;;4.03;3.47;;;;;;;19.95;56.30;95117.13;5067184;28;20051;-68
2023/04/23 10:11:04;;;;;;;4.60;2.42;;;;;;;19.72;54.73;95115.78;5072606;28;20400;-67
2023/04/23 10:13:30;;;;;;;5.13;2.63;;;;;;;20.60;47.28;95109.88;5069797;28;20111;-73
2023/04/23 10:15:57;;;;;;;4.47;3.45;;;;;;;20.85;51.47;95115.22;5068706;28;20051;-68
2023/04/23 10:18:23;;;;;;;5.35;2.47;;;;;;;20.22;53.95;95111.59;5067970;28;20024;-68
2023/04/23 10:20:50;;;;;;;5.13;3.17;;;;;;;19.96;54.85;95107.28;5079219;28;20021;-68
2023/04/23 10:23:20;;;;;;;7.03;3.15;;;;;;;20.06;50.52;95104.13;5060304;28;20021;-72
2023/04/23 10:25:46;;;;;;;5.75;2.88;;;;;;;20.07;44.67;95100.44;5062031;28;20021;-69
2023/04/23 10:28:16;;;;;;;5.30;2.90;;;;;;;20.30;50.77;95103.34;5065619;28;20556;-71
2023/04/23 10:30:43;;;;;;;6.75;3.08;;;;;;;20.56;50.80;95109.50;5070322;28;20024;-69
2023/04/23 10:33:11;;;;;;;5.18;2.80;;;;;;;20.74;44.90;95094.53;5073162;28;20458;-67
2023/04/23 10:35:37;;;;;;;5.70;2.40;;;;;;;21.27;42.47;95093.19;5072440;28;20049;-69
2023/04/23 10:38:03;;;;;;;3.80;2.70;;;;;;;21.43;46.54;95096.25;5076957;28;20063;-69
2023/04/23 10:40:30;;;;;;;5.78;3.42;;;;;;;21.35;48.84;95092.06;5081024;28;20020;-73
2023/04/23 10:42:57;;;;;;;4.78;3.50;;;;;;;20.88;47.06;95088.03;5075428;28;20024;-72
2023/04/23 10:45:22;;;;;;;4.68;2.80;;;;;;;20.88;44.13;95103.28;5064987;28;20536;-71
2023/04/23 10:47:47;;;;;;;5.20;2.70;;;;;;;20.83;42.53;95085.19;5069667;28;20056;-72
2023/04/23 10:50:22;;;;;;;6.47;2.55;;;;;;;20.49;40.97;95092.69;5071724;28;20025;-74
2023/04/23 10:52:52;;;;;;;6.28;2.70;;;;;;;20.20;44.92;95084.28;5075836;28;20028;-71
2023/04/23 10:55:19;;;;;;;5.90;2.63;;;;;;;20.47;41.70;95086.75;5058966;28;20024;-69
2023/04/23 10:58:01;;;;;;;5.20;2.58;;;;;;;20.00;43.85;95090.59;5067309;28;20025;-68
2023/04/23 11:00:27;;;;;;;6.20;2.70;;;;;;;20.07;45.66;95087.88;5077559;28;20059;-71
2023/04/23 11:02:54;;;;;;;7.22;3.13;;;;;;;20.14;44.33;95085.16;5068020;28;20193;-70
2023/04/23 11:05:21;;;;;;;6.68;2.70;;;;;;;20.03;41.86;95079.50;5071169;28;20032;-69
2023/04/23 11:08:12;;;;;;;2.95;2.65;;;;;;;19.73;43.31;95066.69;5070953;28;20025;-68
2023/04/23 11:10:58;;;;;;;5.13;3.15;;;;;;;19.42;45.73;95070.16;5069026;28;20044;-70
2023/04/23 11:13:27;;;;;;;4.13;2.83;;;;;;;19.69;45.50;95070.03;5064899;28;20032;-72
2023/04/23 11:16:14;;;;;;;3.35;2.85;;;;;;;19.89;44.87;95077.91;5084252;28;20062;-71
2023/04/23 11:18:56;;;;;;;5.50;2.80;;;;;;;19.96;46.07;95064.53;5068132;28;20531;-72
2023/04/23 11:21:22;;;;;;;5.45;2.90;;;;;;;20.16;44.04;95072.41;5063063;28;20029;-73
2023/04/23 11:23:47;;;;;;;5.18;2.72;;;;;;;20.71;42.43;95061.00;5084659;28;20028;-75